createdAt,value
2018-01-27T00:00:18.971Z,5.2
2018-01-27T00:01:20.372Z,5.2
2018-01-27T00:02:21.903Z,5.2
2018-01-27T00:03:23.306Z,5.2
2018-01-27T00:04:24.704Z,5.2
2018-01-27T00:05:26.214Z,5.3
2018-01-27T00:06:27.613Z,5.2
2018-01-27T00:07:29.011Z,5.3
2018-01-27T00:08:30.536Z,5.3
2018-01-27T00:09:31.947Z,5.4
2018-01-27T00:10:33.345Z,5.3
2018-01-27T00:11:34.855Z,5.3
2018-01-27T00:12:36.258Z,5.3
2018-01-27T00:13:37.652Z,5.3
2018-01-27T00:14:39.176Z,5.3
2018-01-27T00:15:40.581Z,5.3
2018-01-27T00:16:41.980Z,5.4
2018-01-27T00:17:43.600Z,5.3
2018-01-27T00:18:44.999Z,5.3
2018-01-27T00:19:46.397Z,5.3
2018-01-27T00:20:48.024Z,5.3
2018-01-27T00:21:49.424Z,5.3
2018-01-27T00:22:50.831Z,5.3
2018-01-27T00:23:52.344Z,5.4
2018-01-27T00:24:53.746Z,5.3
2018-01-27T00:25:55.144Z,5.4
2018-01-27T00:26:56.667Z,5.3
2018-01-27T00:27:58.072Z,5.3
2018-01-27T00:28:59.546Z,5.3
2018-01-27T00:30:00.947Z,5.3
2018-01-27T00:31:02.348Z,5.4
2018-01-27T00:32:03.916Z,5.4
2018-01-27T00:33:05.266Z,5.4
2018-01-27T00:34:06.664Z,5.4
2018-01-27T00:35:08.188Z,5.4
2018-01-27T00:36:09.592Z,5.3
2018-01-27T00:37:11.070Z,5.4
2018-01-27T00:38:12.468Z,5.3
2018-01-27T00:39:13.950Z,5.5
2018-01-27T00:40:15.351Z,5.4
2018-01-27T00:41:16.749Z,5.4
2018-01-27T00:42:18.373Z,5.4
2018-01-27T00:43:19.771Z,5.4
2018-01-27T00:44:21.173Z,5.4
2018-01-27T00:45:22.698Z,5.4
2018-01-27T00:46:24.097Z,5.4
2018-01-27T00:47:25.495Z,5.4
2018-01-27T00:48:27.015Z,5.5
2018-01-27T00:49:28.415Z,5.4
2018-01-27T00:50:29.912Z,5.4
2018-01-27T00:51:31.543Z,5.5
2018-01-27T00:52:32.945Z,5.3
2018-01-27T00:53:34.346Z,5.3
2018-01-27T00:54:36.068Z,5.4
2018-01-27T00:55:37.466Z,5.4
2018-01-27T00:56:38.864Z,5.3
2018-01-27T00:57:45.193Z,5.4
2018-01-27T00:58:45.844Z,5.5
2018-01-27T00:59:47.242Z,5.4
2018-01-27T01:00:48.805Z,5.5
2018-01-27T01:01:50.204Z,5.4
2018-01-27T01:02:51.894Z,5.5
2018-01-27T01:03:53.291Z,5.4
2018-01-27T01:04:54.980Z,5.4
2018-01-27T01:05:56.378Z,5.5
2018-01-27T01:06:58.064Z,5.5
2018-01-27T01:07:59.842Z,5.4
2018-01-27T01:09:01.556Z,5.5
2018-01-27T01:10:02.957Z,5.6
2018-01-27T01:11:04.359Z,5.5
2018-01-27T01:12:05.878Z,5.4
2018-01-27T01:13:07.279Z,5.5
2018-01-27T01:14:08.680Z,5.4
2018-01-27T01:15:10.202Z,5.5
2018-01-27T01:16:11.599Z,5.4
2018-01-27T01:17:12.997Z,5.5
2018-01-27T01:18:14.521Z,5.4
2018-01-27T01:19:15.921Z,5.4
2018-01-27T01:20:17.388Z,5.5
2018-01-27T01:21:19.056Z,5.5
2018-01-27T01:22:20.499Z,5.5
2018-01-27T01:23:22.130Z,5.5
2018-01-27T01:24:23.531Z,5.5
2018-01-27T01:25:25.219Z,5.4
2018-01-27T01:26:26.621Z,5.5
2018-01-27T01:27:28.311Z,5.6
2018-01-27T01:28:29.699Z,5.4
2018-01-27T01:29:31.390Z,5.5
2018-01-27T01:30:32.788Z,5.5
2018-01-27T01:31:34.187Z,5.5
2018-01-27T01:32:35.711Z,5.5
2018-01-27T01:33:37.112Z,5.5
2018-01-27T01:34:38.514Z,5.5
2018-01-27T01:35:40.032Z,5.6
2018-01-27T01:36:41.435Z,5.6
2018-01-27T01:37:42.835Z,5.5
2018-01-27T01:38:44.671Z,5.5
2018-01-27T01:39:46.071Z,5.5
2018-01-27T01:40:47.474Z,5.5
2018-01-27T01:41:49.084Z,5.6
2018-01-27T01:42:50.487Z,5.6
2018-01-27T01:43:51.893Z,5.6
2018-01-27T01:44:53.411Z,5.6
2018-01-27T01:45:54.812Z,5.6
2018-01-27T01:46:56.210Z,5.5
2018-01-27T01:47:57.729Z,5.6
2018-01-27T01:48:59.181Z,5.6
2018-01-27T01:50:00.531Z,5.6
2018-01-27T01:51:02.053Z,5.6
2018-01-27T01:52:03.444Z,5.6
2018-01-27T01:53:05.037Z,5.6
2018-01-27T01:54:06.436Z,5.6
2018-01-27T01:55:08.017Z,5.6
2018-01-27T01:56:09.420Z,5.6
2018-01-27T01:57:11.102Z,5.6
2018-01-27T01:58:12.509Z,5.6
2018-01-27T01:59:14.190Z,5.7
2018-01-27T02:00:15.588Z,5.6
2018-01-27T02:01:17.275Z,5.6
2018-01-27T02:02:18.673Z,5.6
2018-01-27T02:03:20.074Z,5.6
2018-01-27T02:04:21.593Z,5.6
2018-01-27T02:05:23.011Z,5.6
2018-01-27T02:06:24.390Z,5.6
2018-01-27T02:07:25.915Z,5.6
2018-01-27T02:08:27.313Z,5.6
2018-01-27T02:09:29.002Z,5.6
2018-01-27T02:10:30.398Z,5.7
2018-01-27T02:11:31.989Z,5.6
2018-01-27T02:12:33.393Z,5.5
2018-01-27T02:13:34.965Z,5.6
2018-01-27T02:14:36.362Z,5.6
2018-01-27T02:15:38.054Z,5.6
2018-01-27T02:16:39.453Z,5.6
2018-01-27T02:17:40.850Z,5.6
2018-01-27T02:18:42.378Z,5.6
2018-01-27T02:19:43.776Z,5.7
2018-01-27T02:20:45.176Z,5.7
2018-01-27T02:21:46.700Z,5.7
2018-01-27T02:22:48.087Z,5.7
2018-01-27T02:23:49.781Z,5.6
2018-01-27T02:24:51.180Z,5.7
2018-01-27T02:25:52.867Z,5.6
2018-01-27T02:26:54.264Z,5.7
2018-01-27T02:27:55.954Z,5.7
2018-01-27T02:28:57.351Z,5.6
2018-01-27T02:29:59.042Z,5.6
2018-01-27T02:31:00.430Z,5.7
2018-01-27T02:32:01.831Z,5.7
2018-01-27T02:33:03.362Z,5.7
2018-01-27T02:34:04.755Z,5.6
2018-01-27T02:35:06.155Z,5.6
2018-01-27T02:36:07.688Z,5.7
2018-01-27T02:37:09.079Z,5.6
2018-01-27T02:38:10.767Z,5.6
2018-01-27T02:39:12.165Z,5.7
2018-01-27T02:40:13.870Z,5.7
2018-01-27T02:41:15.264Z,5.7
2018-01-27T02:42:16.935Z,5.7
2018-01-27T02:43:18.333Z,5.7
2018-01-27T02:44:20.020Z,5.6
2018-01-27T02:45:21.420Z,5.7
2018-01-27T02:46:23.106Z,5.7
2018-01-27T02:47:24.503Z,5.6
2018-01-27T02:48:25.908Z,5.7
2018-01-27T02:49:27.428Z,5.6
2018-01-27T02:50:28.825Z,5.7
2018-01-27T02:51:30.229Z,5.7
2018-01-27T02:52:31.749Z,5.7
2018-01-27T02:53:33.149Z,5.6
2018-01-27T02:54:34.834Z,5.7
2018-01-27T02:55:36.235Z,5.7
2018-01-27T02:56:37.928Z,5.7
2018-01-27T02:57:39.319Z,5.6
2018-01-27T02:58:40.721Z,5.7
2018-01-27T02:59:42.240Z,5.6
2018-01-27T03:00:43.642Z,5.6
2018-01-27T03:01:45.043Z,5.6
2018-01-27T03:02:46.569Z,5.7
2018-01-27T03:03:47.972Z,5.7
2018-01-27T03:04:49.371Z,5.7
2018-01-27T03:05:50.883Z,5.6
2018-01-27T03:06:52.283Z,5.7
2018-01-27T03:07:53.682Z,5.6
2018-01-27T03:08:55.205Z,5.6
2018-01-27T03:09:56.640Z,5.6
2018-01-27T03:10:58.038Z,5.6
2018-01-27T03:11:59.729Z,5.7
2018-01-27T03:13:01.130Z,5.7
2018-01-27T03:14:02.526Z,5.7
2018-01-27T03:15:04.052Z,5.7
2018-01-27T03:16:05.455Z,5.7
2018-01-27T03:17:06.857Z,5.8
2018-01-27T03:18:08.373Z,5.7
2018-01-27T03:19:10.151Z,5.8
2018-01-27T03:20:11.556Z,5.7
2018-01-27T03:21:13.484Z,5.7
2018-01-27T03:22:14.880Z,5.8
2018-01-27T03:23:16.282Z,5.8
2018-01-27T03:24:17.786Z,5.8
2018-01-27T03:25:19.193Z,5.8
2018-01-27T03:26:20.582Z,5.8
2018-01-27T03:27:22.447Z,5.8
2018-01-27T03:28:23.848Z,5.7
2018-01-27T03:29:25.255Z,5.7
2018-01-27T03:30:26.886Z,5.8
2018-01-27T03:31:28.286Z,5.8
2018-01-27T03:32:29.685Z,5.8
2018-01-27T03:33:31.205Z,5.7
2018-01-27T03:34:32.607Z,5.7
2018-01-27T03:35:34.001Z,5.7
2018-01-27T03:36:35.528Z,5.7
2018-01-27T03:37:36.928Z,5.7
2018-01-27T03:38:38.328Z,5.6
2018-01-27T03:39:39.752Z,5.6
2018-01-27T03:40:41.101Z,5.6
2018-01-27T03:41:42.506Z,5.4
2018-01-27T03:42:44.175Z,5.5
2018-01-27T03:43:45.573Z,5.4
2018-01-27T03:44:47.259Z,5.5
2018-01-27T03:45:48.658Z,5.4
2018-01-27T03:46:50.728Z,5.5
2018-01-27T03:47:52.127Z,5.4
2018-01-27T03:48:53.525Z,5.3
2018-01-27T03:49:55.075Z,5.3
2018-01-27T03:50:56.478Z,5.3
2018-01-27T03:51:57.880Z,5.4
2018-01-27T03:52:59.395Z,5.2
2018-01-27T03:54:00.797Z,5.3
2018-01-27T03:55:02.196Z,5.3
2018-01-27T03:56:03.722Z,5.2
2018-01-27T03:57:05.119Z,5.2
2018-01-27T03:58:06.520Z,5.2
2018-01-27T03:59:08.046Z,5.2
2018-01-27T04:00:09.446Z,5.2
2018-01-27T04:01:11.122Z,5.1
2018-01-27T04:02:12.523Z,5.0
2018-01-27T04:03:14.211Z,4.9
2018-01-27T04:04:16.376Z,4.9
2018-01-27T04:05:18.288Z,4.8
2018-01-27T04:06:19.732Z,4.8
2018-01-27T04:07:21.402Z,4.7
2018-01-27T04:08:22.800Z,4.8
2018-01-27T04:09:24.533Z,4.6
2018-01-27T04:10:25.931Z,4.6
2018-01-27T04:11:27.574Z,4.6
2018-01-27T04:12:28.973Z,4.6
2018-01-27T04:13:30.741Z,4.6
2018-01-27T04:14:32.146Z,4.6
2018-01-27T04:15:33.745Z,4.7
2018-01-27T04:16:35.519Z,4.7
2018-01-27T04:17:37.036Z,4.6
2018-01-27T04:18:38.433Z,4.6
2018-01-27T04:19:40.124Z,4.6
2018-01-27T04:20:41.520Z,4.6
2018-01-27T04:21:43.206Z,4.6
2018-01-27T04:22:44.600Z,4.4
2018-01-27T04:23:46.292Z,4.5
2018-01-27T04:24:47.689Z,4.6
2018-01-27T04:25:49.378Z,4.6
2018-01-27T04:26:50.777Z,4.7
2018-01-27T04:27:52.462Z,4.8
2018-01-27T04:28:54.244Z,4.7
2018-01-27T04:29:55.641Z,4.8
2018-01-27T04:30:57.192Z,4.9
2018-01-27T04:31:58.593Z,4.9
2018-01-27T04:32:59.994Z,4.9
2018-01-27T04:34:01.524Z,5.0
2018-01-27T04:35:02.926Z,4.9
2018-01-27T04:36:04.600Z,5.1
2018-01-27T04:37:06.000Z,5.0
2018-01-27T04:38:07.685Z,5.1
2018-01-27T04:39:09.084Z,5.0
2018-01-27T04:40:10.772Z,5.0
2018-01-27T04:41:12.174Z,5.1
2018-01-27T04:42:13.856Z,5.1
2018-01-27T04:43:15.257Z,5.0
2018-01-27T04:44:16.941Z,5.0
2018-01-27T04:45:18.340Z,5.1
2018-01-27T04:46:19.823Z,5.1
2018-01-27T04:47:21.223Z,5.2
2018-01-27T04:48:22.906Z,5.2
2018-01-27T04:49:24.550Z,5.2
2018-01-27T04:50:26.519Z,5.2
2018-01-27T04:51:28.295Z,5.2
2018-01-27T04:52:29.901Z,5.2
2018-01-27T04:53:31.302Z,5.2
2018-01-27T04:54:32.698Z,5.2
2018-01-27T04:55:34.221Z,5.2
2018-01-27T04:56:35.623Z,5.3
2018-01-27T04:57:37.058Z,5.3
2018-01-27T04:58:38.919Z,5.3
2018-01-27T04:59:40.319Z,5.3
2018-01-27T05:00:41.717Z,5.3
2018-01-27T05:01:43.274Z,5.3
2018-01-27T05:02:44.672Z,5.3
2018-01-27T05:03:46.080Z,5.2
2018-01-27T05:04:47.596Z,5.3
2018-01-27T05:05:48.993Z,5.2
2018-01-27T05:06:50.394Z,5.2
2018-01-27T05:07:52.944Z,5.2
2018-01-27T05:08:54.339Z,5.2
2018-01-27T05:09:55.746Z,5.2
2018-01-27T05:10:57.262Z,5.3
2018-01-27T05:11:58.663Z,5.3
2018-01-27T05:13:00.068Z,5.3
2018-01-27T05:14:01.614Z,5.4
2018-01-27T05:15:03.011Z,5.3
2018-01-27T05:16:04.672Z,5.4
2018-01-27T05:17:06.071Z,5.3
2018-01-27T05:18:07.757Z,5.4
2018-01-27T05:19:09.156Z,5.3
2018-01-27T05:20:10.634Z,5.4
2018-01-27T05:21:12.034Z,5.3
2018-01-27T05:22:13.517Z,5.3
2018-01-27T05:23:14.919Z,5.1
2018-01-27T05:24:16.323Z,5.1
2018-01-27T05:25:17.837Z,4.9
2018-01-27T05:26:19.239Z,4.9
2018-01-27T05:27:20.636Z,4.8
2018-01-27T05:28:22.217Z,4.8
2018-01-27T05:29:23.613Z,4.8
2018-01-27T05:30:25.242Z,4.9
2018-01-27T05:31:26.817Z,4.8
2018-01-27T05:32:28.697Z,5.0
2018-01-27T05:33:30.107Z,5.0
2018-01-27T05:34:31.506Z,5.1
2018-01-27T05:35:33.058Z,5.1
2018-01-27T05:36:34.457Z,5.1
2018-01-27T05:37:35.855Z,5.2
2018-01-27T05:38:37.380Z,5.3
2018-01-27T05:39:38.784Z,5.3
2018-01-27T05:40:40.261Z,5.3
2018-01-27T05:41:41.659Z,5.4
2018-01-27T05:42:44.060Z,5.4
2018-01-27T05:43:45.460Z,5.5
2018-01-27T05:44:46.857Z,5.4
2018-01-27T05:45:48.505Z,5.4
2018-01-27T05:46:49.892Z,5.4
2018-01-27T05:47:51.296Z,5.5
2018-01-27T05:48:52.807Z,5.5
2018-01-27T05:49:54.209Z,5.5
2018-01-27T05:50:55.688Z,5.5
2018-01-27T05:51:57.088Z,5.4
2018-01-27T05:52:59.404Z,5.6
2018-01-27T05:54:02.225Z,5.5
2018-01-27T05:55:03.635Z,5.6
2018-01-27T05:56:05.637Z,5.5
2018-01-27T05:57:07.197Z,5.5
2018-01-27T05:58:08.597Z,5.4
2018-01-27T05:59:09.996Z,5.5
2018-01-27T06:00:11.519Z,5.4
2018-01-27T06:01:12.919Z,5.4
2018-01-27T06:02:14.341Z,5.3
2018-01-27T06:03:15.840Z,5.2
2018-01-27T06:04:17.238Z,5.2
2018-01-27T06:05:18.636Z,5.2
2018-01-27T06:06:20.161Z,5.1
2018-01-27T06:07:21.561Z,5.2
2018-01-27T06:08:22.961Z,5.1
2018-01-27T06:09:24.508Z,5.1
2018-01-27T06:10:25.905Z,5.2
2018-01-27T06:11:27.304Z,5.2
2018-01-27T06:12:28.806Z,5.2
2018-01-27T06:13:30.201Z,5.3
2018-01-27T06:14:31.602Z,5.3
2018-01-27T06:15:33.065Z,5.4
2018-01-27T06:16:34.467Z,5.3
2018-01-27T06:17:35.865Z,5.4
2018-01-27T06:18:37.389Z,5.4
2018-01-27T06:19:38.790Z,5.4
2018-01-27T06:20:40.189Z,5.4
2018-01-27T06:21:41.710Z,5.5
2018-01-27T06:22:43.110Z,5.5
2018-01-27T06:23:44.510Z,5.4
2018-01-27T06:24:46.030Z,5.5
2018-01-27T06:25:47.431Z,5.5
2018-01-27T06:26:48.830Z,5.5
2018-01-27T06:27:50.357Z,5.5
2018-01-27T06:28:51.800Z,5.6
2018-01-27T06:29:53.154Z,5.5
2018-01-27T06:30:54.677Z,5.5
2018-01-27T06:31:56.070Z,5.6
2018-01-27T06:32:57.470Z,5.6
2018-01-27T06:33:58.995Z,5.5
2018-01-27T06:35:00.394Z,5.6
2018-01-27T06:36:01.809Z,5.5
2018-01-27T06:37:03.319Z,5.5
2018-01-27T06:38:04.721Z,5.5
2018-01-27T06:39:06.118Z,5.4
2018-01-27T06:40:07.641Z,5.5
2018-01-27T06:41:09.039Z,5.4
2018-01-27T06:42:10.520Z,5.3
2018-01-27T06:43:11.924Z,5.3
2018-01-27T06:44:13.457Z,5.2
2018-01-27T06:45:14.865Z,5.2
2018-01-27T06:46:16.338Z,5.3
2018-01-27T06:47:17.757Z,5.2
2018-01-27T06:48:19.422Z,5.2
2018-01-27T06:49:20.824Z,5.1
2018-01-27T06:50:22.227Z,5.1
2018-01-27T06:51:23.685Z,5.0
2018-01-27T06:52:25.089Z,5.1
2018-01-27T06:53:26.483Z,5.0
2018-01-27T06:54:28.015Z,4.9
2018-01-27T06:55:29.800Z,5.0
2018-01-27T06:56:31.198Z,5.1
2018-01-27T06:57:32.793Z,4.9
2018-01-27T06:58:34.192Z,4.9
2018-01-27T06:59:35.597Z,5.0
2018-01-27T07:00:37.117Z,5.0
2018-01-27T07:01:38.514Z,5.0
2018-01-27T07:02:40.001Z,5.1
2018-01-27T07:03:41.396Z,5.0
2018-01-27T07:04:42.883Z,4.9
2018-01-27T07:05:44.286Z,5.0
2018-01-27T07:06:45.687Z,4.9
2018-01-27T07:07:47.200Z,4.9
2018-01-27T07:08:48.602Z,5.0
2018-01-27T07:09:50.001Z,4.8
2018-01-27T07:10:51.528Z,4.9
2018-01-27T07:11:52.923Z,4.7
2018-01-27T07:12:54.354Z,4.7
2018-01-27T07:13:55.753Z,4.8
2018-01-27T07:14:57.235Z,4.7
2018-01-27T07:15:58.649Z,4.6
2018-01-27T07:17:00.035Z,4.7
2018-01-27T07:18:01.559Z,4.5
2018-01-27T07:19:02.961Z,4.6
2018-01-27T07:20:04.362Z,4.5
2018-01-27T07:21:05.909Z,4.4
2018-01-27T07:22:07.315Z,4.4
2018-01-27T07:23:08.714Z,4.4
2018-01-27T07:24:10.199Z,4.3
2018-01-27T07:25:11.602Z,4.3
2018-01-27T07:26:13.006Z,4.3
2018-01-27T07:27:14.524Z,4.3
2018-01-27T07:28:15.926Z,4.2
2018-01-27T07:29:17.330Z,4.3
2018-01-27T07:30:18.844Z,4.2
2018-01-27T07:31:20.246Z,4.3
2018-01-27T07:32:21.726Z,4.2
2018-01-27T07:33:23.126Z,4.2
2018-01-27T07:34:24.606Z,4.2
2018-01-27T07:35:26.008Z,4.1
2018-01-27T07:36:27.487Z,4.2
2018-01-27T07:37:28.888Z,4.2
2018-01-27T07:38:30.367Z,4.1
2018-01-27T07:39:31.767Z,4.2
2018-01-27T07:40:33.248Z,4.0
2018-01-27T07:41:34.654Z,4.0
2018-01-27T07:42:36.129Z,4.1
2018-01-27T07:43:37.529Z,4.1
2018-01-27T07:44:39.013Z,4.1
2018-01-27T07:45:40.415Z,4.1
2018-01-27T07:46:41.811Z,4.2
2018-01-27T07:47:43.379Z,4.2
2018-01-27T07:48:44.779Z,4.1
2018-01-27T07:49:46.185Z,4.2
2018-01-27T07:50:47.699Z,4.2
2018-01-27T07:51:49.099Z,4.2
2018-01-27T07:52:50.500Z,4.1
2018-01-27T07:53:52.021Z,4.2
2018-01-27T07:54:53.423Z,4.3
2018-01-27T07:55:54.826Z,4.4
2018-01-27T07:56:56.340Z,4.3
2018-01-27T07:57:57.741Z,4.4
2018-01-27T07:58:59.178Z,4.4
2018-01-27T08:00:00.582Z,4.4
2018-01-27T08:01:02.103Z,4.5
2018-01-27T08:02:03.515Z,4.5
2018-01-27T08:03:04.991Z,4.6
2018-01-27T08:04:06.391Z,4.6
2018-01-27T08:05:07.865Z,4.6
2018-01-27T08:06:09.269Z,4.7
2018-01-27T08:07:10.747Z,4.8
2018-01-27T08:08:12.145Z,4.7
2018-01-27T08:09:13.629Z,4.7
2018-01-27T08:10:15.029Z,4.7
2018-01-27T08:11:16.510Z,4.7
2018-01-27T08:12:17.909Z,4.8
2018-01-27T08:13:19.308Z,4.7
2018-01-27T08:14:20.831Z,4.7
2018-01-27T08:15:22.232Z,4.7
2018-01-27T08:16:23.633Z,4.8
2018-01-27T08:17:25.153Z,4.8
2018-01-27T08:18:26.552Z,4.8
2018-01-27T08:19:28.045Z,5.0
2018-01-27T08:20:29.444Z,5.0
2018-01-27T08:21:30.862Z,5.0
2018-01-27T08:22:32.352Z,5.1
2018-01-27T08:23:33.753Z,5.2
2018-01-27T08:24:35.172Z,5.3
2018-01-27T08:25:36.708Z,5.3
2018-01-27T08:26:38.069Z,5.3
2018-01-27T08:27:39.557Z,5.3
2018-01-27T08:28:40.955Z,5.5
2018-01-27T08:29:42.436Z,5.7
2018-01-27T08:30:43.842Z,5.8
2018-01-27T08:31:45.250Z,5.8
2018-01-27T08:32:46.760Z,5.8
2018-01-27T08:33:48.159Z,5.8
2018-01-27T08:34:49.566Z,5.9
2018-01-27T08:35:51.046Z,5.9
2018-01-27T08:36:52.445Z,6.0
2018-01-27T08:37:53.849Z,6.0
2018-01-27T08:38:55.742Z,6.1
2018-01-27T08:39:57.153Z,6.2
2018-01-27T08:40:58.554Z,6.2
2018-01-27T08:42:00.381Z,6.3
2018-01-27T08:43:01.782Z,6.3
2018-01-27T08:44:03.398Z,6.4
2018-01-27T08:45:04.799Z,6.4
2018-01-27T08:46:06.265Z,6.4
2018-01-27T08:47:07.669Z,6.3
2018-01-27T08:48:09.146Z,6.4
2018-01-27T08:49:10.548Z,6.5
2018-01-27T08:50:12.029Z,6.5
2018-01-27T08:51:13.432Z,6.6
2018-01-27T08:52:14.908Z,6.8
2018-01-27T08:53:16.312Z,6.9
2018-01-27T08:54:17.789Z,7.1
2018-01-27T08:55:19.190Z,7.4
2018-01-27T08:56:20.672Z,7.6
2018-01-27T08:57:22.080Z,7.8
2018-01-27T08:58:23.493Z,7.8
2018-01-27T08:59:24.995Z,8.0
2018-01-27T09:00:26.776Z,8.0
2018-01-27T09:01:28.180Z,8.2
2018-01-27T09:02:29.724Z,8.4
2018-01-27T09:03:31.129Z,8.4
2018-01-27T09:04:32.536Z,8.4
2018-01-27T09:05:34.045Z,8.4
2018-01-27T09:06:35.450Z,8.5
2018-01-27T09:07:36.859Z,8.5
2018-01-27T09:08:38.368Z,8.5
2018-01-27T09:09:39.773Z,8.5
2018-01-27T09:10:41.179Z,8.7
2018-01-27T09:11:42.691Z,8.5
2018-01-27T09:12:44.097Z,8.5
2018-01-27T09:13:45.569Z,8.3
2018-01-27T09:14:46.988Z,8.4
2018-01-27T09:15:48.450Z,8.5
2018-01-27T09:16:49.907Z,8.5
2018-01-27T09:17:51.264Z,8.4
2018-01-27T09:18:52.773Z,8.3
2018-01-27T09:19:54.180Z,8.5
2018-01-27T09:20:55.589Z,8.7
2018-01-27T09:21:57.093Z,8.7
2018-01-27T09:22:58.500Z,8.7
2018-01-27T09:24:00.355Z,8.7
2018-01-27T09:25:01.763Z,8.7
2018-01-27T09:26:03.272Z,8.6
2018-01-27T09:27:04.677Z,8.6
2018-01-27T09:28:06.085Z,8.7
2018-01-27T09:29:07.592Z,8.7
2018-01-27T09:30:08.996Z,8.7
2018-01-27T09:31:10.403Z,8.7
2018-01-27T09:32:11.908Z,8.7
2018-01-27T09:33:13.313Z,8.8
2018-01-27T09:34:14.789Z,8.9
2018-01-27T09:35:16.196Z,9.0
2018-01-27T09:36:17.675Z,8.9
2018-01-27T09:37:19.094Z,8.8
2018-01-27T09:38:20.553Z,8.7
2018-01-27T09:39:21.959Z,8.7
2018-01-27T09:40:23.433Z,8.8
2018-01-27T09:41:24.839Z,8.8
2018-01-27T09:42:26.244Z,8.9
2018-01-27T09:43:27.759Z,8.9
2018-01-27T09:44:29.168Z,8.9
2018-01-27T09:45:30.570Z,8.8
2018-01-27T09:46:32.076Z,9.0
2018-01-27T09:47:33.485Z,9.1
2018-01-27T09:48:34.889Z,9.2
2018-01-27T09:49:36.397Z,9.1
2018-01-27T09:50:37.807Z,9.1
2018-01-27T09:51:39.217Z,9.2
2018-01-27T09:52:40.720Z,9.3
2018-01-27T09:53:42.124Z,9.3
2018-01-27T09:54:43.530Z,9.5
2018-01-27T09:55:45.037Z,9.6
2018-01-27T09:56:46.445Z,9.7
2018-01-27T09:57:47.852Z,9.8
2018-01-27T09:58:49.364Z,9.9
2018-01-27T09:59:50.768Z,10.0
2018-01-27T10:00:52.177Z,10.0
2018-01-27T10:01:53.689Z,10.0
2018-01-27T10:02:55.093Z,10.2
2018-01-27T10:03:56.567Z,10.4
2018-01-27T10:04:57.980Z,10.4
2018-01-27T10:05:59.448Z,10.5
2018-01-27T10:07:00.850Z,10.3
2018-01-27T10:08:02.332Z,10.3
2018-01-27T10:09:03.740Z,10.4
2018-01-27T10:10:05.214Z,10.6
2018-01-27T10:11:06.622Z,10.8
2018-01-27T10:12:08.096Z,10.9
2018-01-27T10:13:09.502Z,11.2
2018-01-27T10:14:10.911Z,11.4
2018-01-27T10:15:12.413Z,11.5
2018-01-27T10:16:13.821Z,11.6
2018-01-27T10:17:15.229Z,11.6
2018-01-27T10:18:16.736Z,11.5
2018-01-27T10:19:18.143Z,11.8
2018-01-27T10:20:19.822Z,11.9
2018-01-27T10:21:21.226Z,11.8
2018-01-27T10:22:22.703Z,11.8
2018-01-27T10:23:24.110Z,12.0
2018-01-27T10:24:25.582Z,11.9
2018-01-27T10:25:26.992Z,11.8
2018-01-27T10:26:28.464Z,11.9
2018-01-27T10:27:29.875Z,12.0
2018-01-27T10:28:31.285Z,12.1
2018-01-27T10:29:32.784Z,12.0
2018-01-27T10:30:34.217Z,11.9
2018-01-27T10:31:35.628Z,11.9
2018-01-27T10:32:37.107Z,11.9
2018-01-27T10:33:38.518Z,11.9
2018-01-27T10:34:39.929Z,12.2
2018-01-27T10:35:41.432Z,12.1
2018-01-27T10:36:42.833Z,12.1
2018-01-27T10:37:44.242Z,12.1
2018-01-27T10:38:45.752Z,12.0
2018-01-27T10:39:47.161Z,11.8
2018-01-27T10:40:48.569Z,11.4
2018-01-27T10:41:50.073Z,11.3
2018-01-27T10:42:51.481Z,11.1
2018-01-27T10:43:52.880Z,10.9
2018-01-27T10:44:54.395Z,10.7
2018-01-27T10:45:55.801Z,10.7
2018-01-27T10:46:57.211Z,10.7
2018-01-27T10:47:58.715Z,10.6
2018-01-27T10:49:00.125Z,10.5
2018-01-27T10:50:01.595Z,10.4
2018-01-27T10:51:03.001Z,10.3
2018-01-27T10:52:04.420Z,10.2
2018-01-27T10:53:05.824Z,10.1
2018-01-27T10:54:07.230Z,10.0
2018-01-27T10:55:08.643Z,10.1
2018-01-27T10:56:10.051Z,10.2
2018-01-27T10:57:11.472Z,10.1
2018-01-27T10:58:12.878Z,10.1
2018-01-27T10:59:14.454Z,10.5
2018-01-27T11:00:16.018Z,10.8
2018-01-27T11:01:17.424Z,11.0
2018-01-27T11:02:18.897Z,11.0
2018-01-27T11:03:20.310Z,10.8
2018-01-27T11:04:21.779Z,10.7
2018-01-27T11:05:23.185Z,10.6
2018-01-27T11:06:24.660Z,10.6
2018-01-27T11:07:26.067Z,10.6
2018-01-27T11:08:27.543Z,10.7
2018-01-27T11:09:28.955Z,10.9
2018-01-27T11:10:30.436Z,11.0
2018-01-27T11:11:31.827Z,11.1
2018-01-27T11:12:33.302Z,11.1
2018-01-27T11:13:34.711Z,11.1
2018-01-27T11:14:36.182Z,11.1
2018-01-27T11:15:37.617Z,11.1
2018-01-27T11:16:39.065Z,11.0
2018-01-27T11:17:40.486Z,11.1
2018-01-27T11:18:41.904Z,11.0
2018-01-27T11:19:43.763Z,10.9
2018-01-27T11:20:45.173Z,10.9
2018-01-27T11:21:46.536Z,10.7
2018-01-27T11:22:48.401Z,10.8
2018-01-27T11:23:49.810Z,10.8
2018-01-27T11:24:51.248Z,10.9
2018-01-27T11:25:53.050Z,10.8
2018-01-27T11:26:54.458Z,10.8
2018-01-27T11:27:55.917Z,10.7
2018-01-27T11:28:57.371Z,10.6
2018-01-27T11:29:58.777Z,10.5
2018-01-27T11:31:00.198Z,10.3
2018-01-27T11:32:01.692Z,10.1
2018-01-27T11:33:03.100Z,10.0
2018-01-27T11:34:04.505Z,10.0
2018-01-27T11:35:06.013Z,9.9
2018-01-27T11:36:07.419Z,9.8
2018-01-27T11:37:08.895Z,9.8
2018-01-27T11:38:10.294Z,9.7
2018-01-27T11:39:11.774Z,9.6
2018-01-27T11:40:13.178Z,9.8
2018-01-27T11:41:15.681Z,9.7
2018-01-27T11:42:17.079Z,9.8
2018-01-27T11:43:18.944Z,9.9
2018-01-27T11:44:20.355Z,10.1
2018-01-27T11:45:21.792Z,10.1
2018-01-27T11:46:23.296Z,10.2
2018-01-27T11:47:24.713Z,10.1
2018-01-27T11:48:26.123Z,10.2
2018-01-27T11:49:27.617Z,10.4
2018-01-27T11:50:29.027Z,10.5
2018-01-27T11:51:30.510Z,10.6
2018-01-27T11:52:31.929Z,10.7
2018-01-27T11:53:33.374Z,10.7
2018-01-27T11:54:34.781Z,10.7
2018-01-27T11:55:36.257Z,10.7
2018-01-27T11:56:37.664Z,10.9
2018-01-27T11:57:39.136Z,11.3
2018-01-27T11:58:40.547Z,11.7
2018-01-27T11:59:41.953Z,12.1
2018-01-27T12:00:43.459Z,12.1
2018-01-27T12:01:44.866Z,12.0
2018-01-27T12:02:46.272Z,11.7
2018-01-27T12:03:47.779Z,11.6
2018-01-27T12:04:49.188Z,11.3
2018-01-27T12:05:50.603Z,11.2
2018-01-27T12:06:52.202Z,11.0
2018-01-27T12:07:53.611Z,10.9
2018-01-27T12:08:55.016Z,10.7
2018-01-27T12:09:57.107Z,10.6
2018-01-27T12:10:58.517Z,10.7
2018-01-27T12:11:59.925Z,10.8
2018-01-27T12:13:01.460Z,10.8
2018-01-27T12:14:02.870Z,10.8
2018-01-27T12:15:04.282Z,10.8
2018-01-27T12:16:05.984Z,10.8
2018-01-27T12:17:07.396Z,10.7
2018-01-27T12:18:08.800Z,10.8
2018-01-27T12:19:10.510Z,10.8
2018-01-27T12:20:11.917Z,11.0
2018-01-27T12:21:13.598Z,11.2
2018-01-27T12:22:15.004Z,11.5
2018-01-27T12:23:16.682Z,11.7
2018-01-27T12:24:18.089Z,11.7
2018-01-27T12:25:19.768Z,11.7
2018-01-27T12:26:21.181Z,11.7
2018-01-27T12:27:22.853Z,11.5
2018-01-27T12:28:24.263Z,11.6
2018-01-27T12:29:26.232Z,11.7
2018-01-27T12:30:27.636Z,11.8
2018-01-27T12:31:29.229Z,11.5
2018-01-27T12:32:30.636Z,11.4
2018-01-27T12:33:32.319Z,11.4
2018-01-27T12:34:33.728Z,11.4
2018-01-27T12:35:35.401Z,11.5
2018-01-27T12:36:36.810Z,11.3
2018-01-27T12:37:38.489Z,11.2
2018-01-27T12:38:39.894Z,11.1
2018-01-27T12:39:41.301Z,11.1
2018-01-27T12:40:43.018Z,11.0
2018-01-27T12:41:44.430Z,10.9
2018-01-27T12:42:45.838Z,11.0
2018-01-27T12:43:47.538Z,11.1
2018-01-27T12:44:48.949Z,11.0
2018-01-27T12:45:50.354Z,11.0
2018-01-27T12:46:52.065Z,11.1
2018-01-27T12:47:53.473Z,11.3
2018-01-27T12:48:55.152Z,11.4
2018-01-27T12:49:56.558Z,11.4
2018-01-27T12:50:57.967Z,11.5
2018-01-27T12:52:00.117Z,11.7
2018-01-27T12:53:01.523Z,11.7
2018-01-27T12:54:02.933Z,11.8
2018-01-27T12:55:04.611Z,11.6
2018-01-27T12:56:06.022Z,11.6
2018-01-27T12:57:07.698Z,11.5
2018-01-27T12:58:09.099Z,11.6
2018-01-27T12:59:10.783Z,11.8
2018-01-27T13:00:12.194Z,11.7
2018-01-27T13:01:13.869Z,11.5
2018-01-27T13:02:15.275Z,11.3
2018-01-27T13:03:16.957Z,11.4
2018-01-27T13:04:18.365Z,11.3
2018-01-27T13:05:20.041Z,11.3
2018-01-27T13:06:21.458Z,11.1
2018-01-27T13:07:23.128Z,11.1
2018-01-27T13:08:24.819Z,11.1
2018-01-27T13:09:26.225Z,11.0
2018-01-27T13:10:27.857Z,11.1
2018-01-27T13:11:29.266Z,11.1
2018-01-27T13:12:30.674Z,10.9
2018-01-27T13:13:32.110Z,10.9
2018-01-27T13:14:33.626Z,11.0
2018-01-27T13:15:35.031Z,11.1
2018-01-27T13:16:36.440Z,11.1
2018-01-27T13:17:38.315Z,11.0
2018-01-27T13:18:39.723Z,10.9
2018-01-27T13:19:41.138Z,10.9
2018-01-27T13:20:42.672Z,10.9
2018-01-27T13:21:44.092Z,10.9
2018-01-27T13:22:45.498Z,10.8
2018-01-27T13:23:47.203Z,10.7
2018-01-27T13:24:48.611Z,10.7
2018-01-27T13:25:50.016Z,10.7
2018-01-27T13:26:51.728Z,10.6
2018-01-27T13:27:53.125Z,10.6
2018-01-27T13:28:54.813Z,10.6
2018-01-27T13:29:56.215Z,10.6
2018-01-27T13:30:57.621Z,10.6
2018-01-27T13:31:59.337Z,10.7
2018-01-27T13:33:00.743Z,10.7
2018-01-27T13:34:02.153Z,10.7
2018-01-27T13:35:03.863Z,10.7
2018-01-27T13:36:05.262Z,10.6
2018-01-27T13:37:07.326Z,10.6
2018-01-27T13:38:08.734Z,10.5
2018-01-27T13:39:10.443Z,10.6
2018-01-27T13:40:11.849Z,10.6
2018-01-27T13:41:13.906Z,10.6
2018-01-27T13:42:15.312Z,10.6
2018-01-27T13:43:17.023Z,10.5
2018-01-27T13:44:18.423Z,10.6
2018-01-27T13:45:20.147Z,10.7
2018-01-27T13:46:21.555Z,10.8
2018-01-27T13:47:22.968Z,10.8
2018-01-27T13:48:24.705Z,10.8
2018-01-27T13:49:26.098Z,10.6
2018-01-27T13:50:27.514Z,10.4
2018-01-27T13:51:29.158Z,10.4
2018-01-27T13:52:30.575Z,10.3
2018-01-27T13:53:32.015Z,10.2
2018-01-27T13:54:33.699Z,10.2
2018-01-27T13:55:35.129Z,10.0
2018-01-27T13:56:36.570Z,10.0
2018-01-27T13:57:38.215Z,10.0
2018-01-27T13:58:39.622Z,9.9